Ct Longford — 9HYM9 — position and weather

sailwx.info

Track history (hours):
 
Tides and Currents Weather Stations Pressure Air Temp Water Temp Dewpoint Dewpoint Depression Visibility Wind Speed Wind Dir Waves Ship Positions

Ct Longford

Last reported at 2014-Nov-30 23:29 UTC. Time now 2014-Dec-20 17:57 UTC.
Position N 29°53' W 089°57'.
Warning: this ship's position is 19 days out of date.

Length 117 m; draft 7 m.

Type: Tanker. MMSI: 249706000.

Date/timePositionNaut miles runAvg speedWind from/ knotsBaromVisibWave heightAir tempDewpointWater temp
2014-Nov-30 23:29N 29°53' W 089°57'6 5.6
2014-Nov-30 22:24N 29°57' W 090°02'7 0.3
2014-Nov-29 18:25N 29°57' W 090°10'6 6.6
2014-Nov-29 17:33N 29°56' W 090°03'  
2014-Nov-27 07:08N 24°22' W 083°37'16 9.0
2014-Nov-27 05:24N 24°17' W 083°20'227 8.7
2014-Nov-26 03:07N 25°46' W 079°30'5 9.0
2014-Nov-26 02:33N 25°50' W 079°27'9 9.2
2014-Nov-26 01:33N 25°58' W 079°21'10 9.0
2014-Nov-26 00:25N 26°07' W 079°15'  
2014-Nov-21 08:33N 26°06' W 079°25'1111.1
2014-Nov-21 07:33N 25°56' W 079°30'  
Track history (hours):
 
Tides and Currents Weather Stations Pressure Air Temp Water Temp Dewpoint Dewpoint Depression Visibility Wind Speed Wind Dir Waves Ship Positions

Ct Longford

Last reported at 2014-Nov-30 23:29 UTC. Time now 2014-Dec-20 17:57 UTC.
Position N 29°53' W 089°57'.
Warning: this ship's position is 19 days out of date.

Length 117 m; draft 7 m.

Type: Tanker. MMSI: 249706000.

Date/timePositionNaut miles runAvg speedWind from/ knotsBaromVisibWave heightAir tempDewpointWater temp
2014-Nov-30 23:29N 29°53' W 089°57'6 5.6
2014-Nov-30 22:24N 29°57' W 090°02'7 0.3
2014-Nov-29 18:25N 29°57' W 090°10'6 6.6
2014-Nov-29 17:33N 29°56' W 090°03'  
2014-Nov-27 07:08N 24°22' W 083°37'16 9.0
2014-Nov-27 05:24N 24°17' W 083°20'227 8.7
2014-Nov-26 03:07N 25°46' W 079°30'5 9.0
2014-Nov-26 02:33N 25°50' W 079°27'9 9.2
2014-Nov-26 01:33N 25°58' W 079°21'10 9.0
2014-Nov-26 00:25N 26°07' W 079°15'  
2014-Nov-21 08:33N 26°06' W 079°25'1111.1
2014-Nov-21 07:33N 25°56' W 079°30'  

Dump ship's entire track history